createdAt,value
2023-03-26T00:00:23.941Z,84.77
2023-03-26T00:01:56.926Z,84.69
2023-03-26T00:03:30.063Z,83.99
2023-03-26T00:05:02.793Z,83.58
2023-03-26T00:06:39.264Z,82.31
2023-03-26T00:08:11.490Z,82.97
2023-03-26T00:09:44.091Z,83.11
2023-03-26T00:11:17.723Z,82.87
2023-03-26T00:12:49.444Z,82.39
2023-03-26T00:14:21.441Z,82.66
2023-03-26T00:15:53.349Z,82.85
2023-03-26T00:17:25.145Z,83.17
2023-03-26T00:18:57.926Z,83.28
2023-03-26T00:20:32.743Z,83.88
2023-03-26T00:22:04.392Z,84.32
2023-03-26T00:23:36.085Z,84.87
2023-03-26T00:25:08.168Z,83.88
2023-03-26T00:26:41.032Z,84.41
2023-03-26T00:28:13.540Z,84.31
2023-03-26T00:29:45.155Z,83.40
2023-03-26T00:31:17.112Z,83.45
2023-03-26T00:32:53.379Z,83.35
2023-03-26T00:34:26.599Z,82.80
2023-03-26T00:36:03.186Z,83.71
2023-03-26T00:37:36.003Z,83.94
2023-03-26T00:39:07.892Z,84.44
2023-03-26T00:40:44.167Z,85.09
2023-03-26T00:42:15.854Z,84.50
2023-03-26T00:43:48.483Z,84.81
2023-03-26T00:45:21.956Z,85.45
2023-03-26T00:46:53.687Z,85.38
2023-03-26T00:48:42.180Z,85.93
2023-03-26T00:50:17.050Z,86.84
2023-03-26T00:51:48.667Z,86.20
2023-03-26T00:53:20.804Z,86.96
2023-03-26T00:54:52.422Z,85.89
2023-03-26T00:56:25.170Z,86.16
2023-03-26T00:57:57.339Z,86.32
2023-03-26T00:59:30.397Z,87.07
2023-03-26T01:01:06.352Z,87.10
2023-03-26T01:02:38.168Z,88.21
2023-03-26T01:04:31.612Z,87.58
2023-03-26T01:06:27.769Z,87.87
2023-03-26T01:08:30.732Z,87.79
2023-03-26T01:10:02.424Z,87.35
2023-03-26T01:11:35.812Z,86.97
2023-03-26T01:13:07.668Z,87.64
2023-03-26T01:14:39.960Z,87.39
2023-03-26T01:16:21.304Z,86.72
2023-03-26T01:17:57.847Z,87.40
2023-03-26T01:19:45.176Z,87.85
2023-03-26T01:21:30.121Z,87.86
2023-03-26T01:23:05.345Z,87.80
2023-03-26T01:24:38.724Z,87.91
2023-03-26T01:26:28.658Z,88.27
2023-03-26T01:28:01.052Z,88.34
2023-03-26T01:29:49.176Z,88.00
2023-03-26T01:31:47.881Z,87.14
2023-03-26T01:33:30.153Z,86.47
2023-03-26T01:35:31.618Z,87.40
2023-03-26T01:37:13.178Z,88.23
2023-03-26T01:38:55.613Z,87.42
2023-03-26T01:40:38.752Z,88.03
2023-03-26T01:42:19.932Z,88.31
2023-03-26T01:44:00.788Z,88.11
2023-03-26T01:45:36.166Z,88.75
2023-03-26T01:47:09.418Z,88.30
2023-03-26T01:48:43.835Z,88.24
2023-03-26T01:50:15.623Z,88.16
2023-03-26T01:51:47.770Z,88.18
2023-03-26T01:53:19.609Z,88.47
2023-03-26T01:54:52.466Z,88.28
2023-03-26T01:56:45.935Z,89.12
2023-03-26T01:58:38.033Z,88.78
2023-03-26T02:00:20.813Z,89.27
2023-03-26T02:02:04.944Z,89.81
2023-03-26T02:03:45.145Z,89.37
2023-03-26T02:05:22.890Z,89.13
2023-03-26T02:07:02.039Z,89.17
2023-03-26T02:08:38.330Z,88.77
2023-03-26T02:10:17.230Z,88.88
2023-03-26T02:11:50.846Z,89.18
2023-03-26T02:13:22.822Z,89.00
2023-03-26T02:14:54.442Z,89.62
2023-03-26T02:16:26.074Z,89.80
2023-03-26T02:17:59.764Z,90.02
2023-03-26T02:19:33.320Z,90.28
2023-03-26T02:21:14.196Z,90.00
2023-03-26T02:22:47.532Z,89.73
2023-03-26T02:24:22.167Z,89.82
2023-03-26T02:25:58.364Z,89.54
2023-03-26T02:27:30.026Z,89.90
2023-03-26T02:29:02.234Z,89.36
2023-03-26T02:30:33.973Z,89.25
2023-03-26T02:32:07.885Z,89.45
2023-03-26T02:33:40.388Z,89.90
2023-03-26T02:35:12.895Z,90.05
2023-03-26T02:36:44.715Z,89.45
2023-03-26T02:38:16.604Z,89.35
2023-03-26T02:39:48.238Z,89.14
2023-03-26T02:41:29.862Z,88.93
2023-03-26T02:43:05.880Z,89.09
2023-03-26T02:44:40.236Z,89.22
2023-03-26T02:46:17.686Z,89.09
2023-03-26T02:48:08.514Z,89.55
2023-03-26T02:49:54.118Z,89.71
2023-03-26T02:51:37.448Z,89.96
2023-03-26T02:53:17.417Z,89.17
2023-03-26T02:54:53.576Z,88.94
2023-03-26T02:56:27.878Z,89.13
2023-03-26T02:58:20.086Z,89.50
2023-03-26T02:59:52.825Z,89.70
2023-03-26T03:01:42.924Z,89.83
2023-03-26T03:03:17.288Z,89.49
2023-03-26T03:05:05.936Z,89.33
2023-03-26T03:06:40.402Z,89.39
2023-03-26T03:08:12.130Z,89.42
2023-03-26T03:09:50.890Z,89.43
2023-03-26T03:11:45.424Z,89.88
2023-03-26T03:13:17.013Z,90.22
2023-03-26T03:14:48.631Z,89.45
2023-03-26T03:16:20.774Z,89.72
2023-03-26T03:17:52.680Z,89.45
2023-03-26T03:19:24.631Z,89.57
2023-03-26T03:20:56.511Z,89.30
2023-03-26T03:22:28.033Z,89.06
2023-03-26T03:24:00.603Z,89.16
2023-03-26T03:25:35.941Z,88.75
2023-03-26T03:27:07.497Z,88.38
2023-03-26T03:28:45.832Z,87.67
2023-03-26T03:30:19.814Z,87.79
2023-03-26T03:31:51.559Z,87.67
2023-03-26T03:33:46.554Z,88.24
2023-03-26T03:35:19.742Z,88.17
2023-03-26T03:36:54.674Z,87.81
2023-03-26T03:38:38.521Z,87.49
2023-03-26T03:40:10.991Z,87.47
2023-03-26T03:41:43.762Z,87.47
2023-03-26T03:43:19.094Z,87.80
2023-03-26T03:45:16.937Z,88.09
2023-03-26T03:47:07.038Z,88.85
2023-03-26T03:48:39.229Z,89.32
2023-03-26T03:50:12.341Z,89.55
2023-03-26T03:51:52.606Z,89.40
2023-03-26T03:53:31.803Z,89.08
2023-03-26T03:55:05.545Z,89.01
2023-03-26T03:56:57.466Z,89.27
2023-03-26T03:58:48.217Z,89.79
2023-03-26T04:00:25.943Z,89.58
2023-03-26T04:02:26.326Z,89.24
2023-03-26T04:04:02.393Z,89.64
2023-03-26T04:05:55.093Z,89.42
2023-03-26T04:07:33.522Z,89.71
2023-03-26T04:09:10.762Z,89.65
2023-03-26T04:10:45.428Z,89.46
2023-03-26T04:12:17.229Z,89.19
2023-03-26T04:14:04.695Z,89.53
2023-03-26T04:15:50.274Z,89.64
2023-03-26T04:17:23.000Z,89.61
2023-03-26T04:18:58.403Z,89.58
2023-03-26T04:20:30.235Z,89.14
2023-03-26T04:22:05.067Z,89.29
2023-03-26T04:23:42.541Z,89.59
2023-03-26T04:25:30.428Z,89.68
2023-03-26T04:27:27.983Z,89.48
2023-03-26T04:29:11.979Z,89.39
2023-03-26T04:30:44.910Z,89.35
2023-03-26T04:32:42.947Z,89.27
2023-03-26T04:34:26.212Z,88.67
2023-03-26T04:36:18.533Z,88.29
2023-03-26T04:37:52.952Z,88.40
2023-03-26T04:39:33.980Z,88.68
2023-03-26T04:41:32.410Z,89.31
2023-03-26T04:43:18.094Z,88.73
2023-03-26T04:44:59.728Z,89.40
2023-03-26T04:46:33.614Z,89.05
2023-03-26T04:48:17.251Z,88.95
2023-03-26T04:49:48.834Z,88.97
2023-03-26T04:51:27.093Z,88.76
2023-03-26T04:53:00.120Z,88.99
2023-03-26T04:54:58.174Z,89.19
2023-03-26T04:56:47.326Z,87.65
2023-03-26T04:58:34.011Z,87.62
2023-03-26T05:00:18.812Z,87.30
2023-03-26T05:01:57.920Z,87.22
2023-03-26T05:03:32.433Z,86.67
2023-03-26T05:05:09.545Z,87.74
2023-03-26T05:06:41.981Z,88.56
2023-03-26T05:08:23.453Z,88.79
2023-03-26T05:09:57.344Z,88.67
2023-03-26T05:11:55.584Z,89.41
2023-03-26T05:13:27.310Z,89.47
2023-03-26T05:15:00.934Z,88.89
2023-03-26T05:16:57.033Z,88.42
2023-03-26T05:18:28.673Z,88.45
2023-03-26T05:20:01.299Z,88.33
2023-03-26T05:21:33.465Z,88.63
2023-03-26T05:23:05.821Z,88.27
2023-03-26T05:24:39.768Z,88.51
2023-03-26T05:26:11.501Z,89.02
2023-03-26T05:27:43.779Z,88.60
2023-03-26T05:29:17.315Z,87.88
2023-03-26T05:30:53.424Z,87.98
2023-03-26T05:32:26.243Z,88.89
2023-03-26T05:34:00.592Z,88.59
2023-03-26T05:35:32.890Z,89.17
2023-03-26T05:37:06.760Z,89.36
2023-03-26T05:39:07.256Z,89.01
2023-03-26T05:41:04.481Z,89.08
2023-03-26T05:42:36.554Z,88.55
2023-03-26T05:44:26.532Z,89.01
2023-03-26T05:45:58.208Z,88.72
2023-03-26T05:47:33.701Z,88.90
2023-03-26T05:49:05.310Z,89.05
2023-03-26T05:50:39.672Z,89.01
2023-03-26T05:52:15.128Z,88.54
2023-03-26T05:54:22.098Z,88.21
2023-03-26T05:56:12.541Z,88.31
2023-03-26T05:58:04.042Z,88.22
2023-03-26T05:59:56.263Z,89.00
2023-03-26T06:01:46.514Z,88.47
2023-03-26T06:03:23.125Z,88.55
2023-03-26T06:05:14.777Z,88.30
2023-03-26T06:07:02.059Z,88.32
2023-03-26T06:08:34.023Z,88.50
2023-03-26T06:10:06.501Z,88.60
2023-03-26T06:11:38.135Z,88.78
2023-03-26T06:13:10.505Z,88.32
2023-03-26T06:14:44.942Z,88.41
2023-03-26T06:16:28.370Z,87.47
2023-03-26T06:18:20.675Z,87.81
2023-03-26T06:20:24.909Z,87.11
2023-03-26T06:21:57.500Z,87.06
2023-03-26T06:23:34.752Z,86.75
2023-03-26T06:25:12.501Z,86.76
2023-03-26T06:26:56.276Z,86.61
2023-03-26T06:28:27.832Z,86.28
2023-03-26T06:30:22.523Z,86.09
2023-03-26T06:32:18.472Z,85.12
2023-03-26T06:34:23.946Z,85.76
2023-03-26T06:35:56.053Z,86.16
2023-03-26T06:37:27.687Z,86.66
2023-03-26T06:39:07.691Z,86.01
2023-03-26T06:40:41.197Z,85.98
2023-03-26T06:42:12.854Z,85.99
2023-03-26T06:43:56.731Z,85.97
2023-03-26T06:45:51.013Z,86.15
2023-03-26T06:47:40.966Z,86.38
2023-03-26T06:49:31.516Z,86.94
2023-03-26T06:51:35.127Z,86.11
2023-03-26T06:53:27.241Z,87.33
2023-03-26T06:55:19.827Z,86.21
2023-03-26T06:56:59.938Z,86.95
2023-03-26T06:58:51.796Z,87.45
2023-03-26T07:00:54.021Z,86.28
2023-03-26T07:02:45.015Z,86.69
2023-03-26T07:04:35.516Z,86.06
2023-03-26T07:06:30.499Z,86.48
2023-03-26T07:08:20.787Z,86.40
2023-03-26T07:10:10.682Z,87.30
2023-03-26T07:11:45.145Z,86.79
2023-03-26T07:13:19.310Z,87.51
2023-03-26T07:15:10.433Z,86.93
2023-03-26T07:17:00.252Z,86.82
2023-03-26T07:19:01.177Z,86.44
2023-03-26T07:20:38.968Z,87.15
2023-03-26T07:22:19.724Z,86.41
2023-03-26T07:24:11.541Z,85.66
2023-03-26T07:25:54.625Z,85.11
2023-03-26T07:28:07.904Z,86.57
2023-03-26T07:30:12.310Z,86.15
2023-03-26T07:32:21.452Z,86.46
2023-03-26T07:34:13.471Z,86.80
2023-03-26T07:36:12.120Z,86.29
2023-03-26T07:38:13.935Z,85.88
2023-03-26T07:40:16.129Z,86.46
2023-03-26T07:42:26.799Z,87.25
2023-03-26T07:44:44.728Z,85.69
2023-03-26T07:46:36.916Z,85.63
2023-03-26T07:48:43.911Z,85.76
2023-03-26T07:50:25.455Z,85.45
2023-03-26T07:52:12.868Z,85.91
2023-03-26T07:54:00.649Z,85.48
2023-03-26T07:56:14.334Z,86.30
2023-03-26T07:58:22.394Z,87.06
2023-03-26T08:00:48.698Z,86.15
2023-03-26T08:02:24.282Z,85.62
2023-03-26T08:04:38.910Z,87.10
2023-03-26T08:06:33.670Z,86.96
2023-03-26T08:08:38.183Z,86.46
2023-03-26T08:10:56.571Z,86.68
2023-03-26T08:12:39.044Z,87.58
2023-03-26T08:14:26.283Z,87.35
2023-03-26T08:16:15.592Z,86.91
2023-03-26T08:17:54.222Z,87.76
2023-03-26T08:19:54.117Z,86.18
2023-03-26T08:21:31.769Z,87.29
2023-03-26T08:23:12.242Z,87.42
2023-03-26T08:24:57.287Z,87.64
2023-03-26T08:26:51.483Z,88.03
2023-03-26T08:28:40.260Z,88.07
2023-03-26T08:30:20.397Z,88.55
2023-03-26T08:31:53.740Z,87.81
2023-03-26T08:33:27.715Z,87.61
2023-03-26T08:35:01.195Z,87.86
2023-03-26T08:36:32.865Z,87.95
2023-03-26T08:38:04.494Z,87.96
2023-03-26T08:39:38.909Z,88.30
2023-03-26T08:41:10.474Z,87.54
2023-03-26T08:43:23.603Z,87.36
2023-03-26T08:45:22.165Z,87.43
2023-03-26T08:47:21.110Z,87.96
2023-03-26T08:49:19.430Z,88.25
2023-03-26T08:51:23.114Z,88.42
2023-03-26T08:52:57.522Z,87.86
2023-03-26T08:55:26.092Z,86.77
2023-03-26T08:57:17.787Z,87.35
2023-03-26T08:59:14.229Z,86.52
2023-03-26T09:01:10.939Z,85.79
2023-03-26T09:03:00.647Z,86.76
2023-03-26T09:05:02.965Z,86.43
2023-03-26T09:06:40.960Z,86.42
2023-03-26T09:09:04.592Z,86.36
2023-03-26T09:10:50.492Z,81.28
2023-03-26T09:12:44.260Z,78.35
2023-03-26T09:14:30.706Z,78.76
2023-03-26T09:16:20.831Z,80.62
2023-03-26T09:17:57.776Z,81.43
2023-03-26T09:19:35.825Z,82.38
2023-03-26T09:21:24.946Z,79.83
2023-03-26T09:23:25.369Z,79.50
2023-03-26T09:25:03.087Z,82.20
2023-03-26T09:26:59.177Z,83.68
2023-03-26T09:29:12.244Z,82.85
2023-03-26T09:31:08.604Z,83.33
2023-03-26T09:33:17.664Z,83.22
2023-03-26T09:35:12.610Z,80.79
2023-03-26T09:36:53.828Z,78.07
2023-03-26T09:38:43.804Z,77.38
2023-03-26T09:40:20.255Z,77.77
2023-03-26T09:42:11.761Z,78.29
2023-03-26T09:43:49.401Z,78.70
2023-03-26T09:45:22.526Z,79.13
2023-03-26T09:46:56.966Z,78.45
2023-03-26T09:49:17.358Z,78.55
2023-03-26T09:51:01.551Z,77.66
2023-03-26T09:53:21.212Z,70.01
2023-03-26T09:55:27.358Z,54.87
2023-03-26T09:57:53.575Z,61.87
2023-03-26T09:59:36.883Z,65.90
2023-03-26T10:01:12.525Z,68.49
2023-03-26T10:03:15.780Z,69.34
2023-03-26T10:04:47.700Z,68.56
2023-03-26T10:06:44.911Z,70.97
2023-03-26T10:08:41.348Z,70.22
2023-03-26T10:10:41.739Z,68.97
2023-03-26T10:12:22.507Z,71.20
2023-03-26T10:14:18.835Z,71.98
2023-03-26T10:16:17.356Z,72.94
2023-03-26T10:18:29.798Z,72.69
2023-03-26T10:20:20.090Z,73.10
2023-03-26T10:22:30.742Z,71.13
2023-03-26T10:24:05.967Z,70.94
2023-03-26T10:25:56.727Z,67.72
2023-03-26T10:27:50.119Z,54.21
2023-03-26T10:29:30.780Z,37.98
2023-03-26T10:31:34.343Z,30.25
2023-03-26T10:33:32.731Z,37.83
2023-03-26T10:35:23.189Z,48.31
2023-03-26T10:37:17.710Z,52.20
2023-03-26T10:39:37.736Z,57.33
2023-03-26T10:41:21.159Z,54.02
2023-03-26T10:43:04.784Z,54.39
2023-03-26T10:44:48.585Z,53.66
2023-03-26T10:46:32.296Z,51.66
2023-03-26T10:48:04.082Z,53.47
2023-03-26T10:50:06.552Z,52.83
2023-03-26T10:51:53.458Z,52.94
2023-03-26T10:53:51.447Z,56.97
2023-03-26T10:55:32.405Z,56.98
2023-03-26T10:57:19.531Z,59.16
2023-03-26T10:58:51.775Z,58.58
2023-03-26T11:00:26.454Z,60.44
2023-03-26T11:02:18.032Z,60.79
2023-03-26T11:03:52.608Z,59.85
2023-03-26T11:05:27.785Z,59.70
2023-03-26T11:07:23.213Z,57.78
2023-03-26T11:09:27.919Z,56.85
2023-03-26T11:11:23.716Z,56.46
2023-03-26T11:13:16.052Z,55.24
2023-03-26T11:15:03.459Z,55.42
2023-03-26T11:16:53.413Z,55.95
2023-03-26T11:18:47.880Z,56.61
2023-03-26T11:20:34.367Z,54.58
2023-03-26T11:22:50.413Z,55.11
2023-03-26T11:24:58.763Z,54.11
2023-03-26T11:26:56.001Z,50.70
2023-03-26T11:28:40.346Z,51.38
2023-03-26T11:30:49.800Z,54.11
2023-03-26T11:32:27.030Z,50.64
2023-03-26T11:34:06.310Z,39.24
2023-03-26T11:35:43.896Z,41.66
2023-03-26T11:37:23.915Z,37.94
2023-03-26T11:39:00.157Z,46.11
2023-03-26T11:40:42.960Z,36.80
2023-03-26T11:42:24.156Z,36.74
2023-03-26T11:44:02.762Z,29.96
2023-03-26T11:45:38.122Z,28.28
2023-03-26T11:47:15.050Z,28.53
2023-03-26T11:48:57.512Z,25.53
2023-03-26T11:50:32.907Z,28.58
2023-03-26T11:52:04.508Z,27.35
2023-03-26T11:53:39.691Z,27.59
2023-03-26T11:55:12.508Z,28.09
2023-03-26T11:57:08.479Z,27.93
2023-03-26T11:58:42.928Z,26.56
2023-03-26T12:00:23.233Z,26.33
2023-03-26T12:02:12.723Z,29.72
2023-03-26T12:03:57.022Z,36.92
2023-03-26T12:05:36.559Z,41.44
2023-03-26T12:07:18.440Z,45.58
2023-03-26T12:08:50.070Z,47.72
2023-03-26T12:10:24.166Z,46.94
2023-03-26T12:12:03.668Z,47.55
2023-03-26T12:13:39.530Z,47.23
2023-03-26T12:15:15.916Z,48.40
2023-03-26T12:17:08.526Z,47.13
2023-03-26T12:18:43.747Z,46.47
2023-03-26T12:20:36.067Z,47.79
2023-03-26T12:22:38.541Z,49.60
2023-03-26T12:24:25.176Z,48.42
2023-03-26T12:26:19.076Z,50.58
2023-03-26T12:28:03.013Z,47.91
2023-03-26T12:29:34.896Z,46.90
2023-03-26T12:31:07.621Z,47.71
2023-03-26T12:32:46.410Z,48.00
2023-03-26T12:34:21.597Z,44.96
2023-03-26T12:36:01.094Z,45.65
2023-03-26T12:37:38.516Z,43.19
2023-03-26T12:40:09.450Z,45.22
2023-03-26T12:43:40.482Z,45.30
2023-03-26T12:44:46.702Z,44.27
2023-03-26T12:45:23.721Z,44.67
2023-03-26T12:48:00.517Z,44.00
2023-03-26T12:49:11.956Z,44.09
2023-03-26T12:51:04.099Z,42.73
2023-03-26T12:52:45.176Z,42.64
2023-03-26T12:54:25.967Z,41.65
2023-03-26T12:56:15.490Z,41.79
2023-03-26T12:58:13.758Z,42.24
2023-03-26T12:59:48.851Z,43.17
2023-03-26T13:01:38.887Z,43.42
2023-03-26T13:03:32.170Z,41.40
2023-03-26T13:05:32.960Z,42.06
2023-03-26T13:07:07.725Z,42.42
2023-03-26T13:09:03.318Z,42.05
2023-03-26T13:10:38.736Z,42.37
2023-03-26T13:12:14.419Z,41.67
2023-03-26T13:14:02.063Z,39.17
2023-03-26T13:15:43.351Z,40.20
2023-03-26T13:17:15.154Z,40.66
2023-03-26T13:18:51.224Z,41.82
2023-03-26T13:20:38.522Z,41.84
2023-03-26T13:22:28.630Z,42.75
2023-03-26T13:24:06.266Z,43.87
2023-03-26T13:25:59.064Z,45.17
2023-03-26T13:27:35.824Z,37.61
2023-03-26T13:29:18.735Z,32.42
2023-03-26T13:31:14.387Z,28.46
2023-03-26T13:33:12.225Z,26.76
2023-03-26T13:35:20.991Z,27.09
2023-03-26T13:37:01.598Z,30.17
2023-03-26T13:38:58.863Z,31.81
2023-03-26T13:40:46.383Z,30.49
2023-03-26T13:42:21.786Z,29.10
2023-03-26T13:44:19.279Z,31.87
2023-03-26T13:45:59.117Z,35.34
2023-03-26T13:47:35.185Z,36.46
2023-03-26T13:49:13.518Z,39.30
2023-03-26T13:50:57.152Z,39.48
2023-03-26T13:52:38.387Z,41.14
2023-03-26T13:54:31.864Z,42.56
2023-03-26T13:56:05.557Z,42.84
2023-03-26T13:57:47.000Z,41.68
2023-03-26T13:59:31.884Z,43.46
2023-03-26T14:01:10.984Z,43.80
2023-03-26T14:02:44.348Z,43.29
2023-03-26T14:04:21.489Z,43.86
2023-03-26T14:05:57.301Z,44.02
2023-03-26T14:07:40.629Z,43.86
2023-03-26T14:09:31.962Z,44.50
2023-03-26T14:11:11.053Z,43.68
2023-03-26T14:12:52.411Z,44.79
2023-03-26T14:14:32.410Z,43.75
2023-03-26T14:16:35.387Z,43.78
2023-03-26T14:18:39.308Z,43.02
2023-03-26T14:20:41.927Z,44.08
2023-03-26T14:22:29.842Z,43.50
2023-03-26T14:24:20.299Z,43.32
2023-03-26T14:26:14.035Z,42.76
2023-03-26T14:28:09.630Z,43.69
2023-03-26T14:30:20.625Z,44.02
2023-03-26T14:31:58.332Z,43.77
2023-03-26T14:33:53.190Z,46.13
2023-03-26T14:35:31.613Z,42.92
2023-03-26T14:37:28.836Z,46.33
2023-03-26T14:39:24.638Z,47.70
2023-03-26T14:41:01.968Z,49.18
2023-03-26T14:43:15.955Z,51.66
2023-03-26T14:45:22.047Z,50.46
2023-03-26T14:47:09.736Z,48.83
2023-03-26T14:49:23.175Z,48.80
2023-03-26T14:50:55.006Z,49.23
2023-03-26T14:52:39.501Z,51.00
2023-03-26T14:54:14.824Z,51.74
2023-03-26T14:56:02.227Z,51.67
2023-03-26T14:57:52.551Z,51.68
2023-03-26T14:59:32.864Z,49.57
2023-03-26T15:01:47.297Z,50.74
2023-03-26T15:03:38.765Z,50.54
2023-03-26T15:05:13.354Z,50.37
2023-03-26T15:07:06.695Z,51.92
2023-03-26T15:09:15.946Z,51.43
2023-03-26T15:11:02.500Z,52.43
2023-03-26T15:12:50.926Z,52.42
2023-03-26T15:14:55.003Z,53.19
2023-03-26T15:16:29.424Z,54.42
2023-03-26T15:18:39.374Z,54.53
2023-03-26T15:20:17.137Z,54.65
2023-03-26T15:22:26.100Z,56.91
2023-03-26T15:24:22.747Z,62.45
2023-03-26T15:25:57.217Z,66.41
2023-03-26T15:28:16.618Z,69.03
2023-03-26T15:30:04.343Z,69.33
2023-03-26T15:32:09.272Z,73.20
2023-03-26T15:33:57.112Z,69.82
2023-03-26T15:36:09.103Z,70.13
2023-03-26T15:38:10.069Z,73.14
2023-03-26T15:39:59.033Z,73.94
2023-03-26T15:41:47.007Z,74.10
2023-03-26T15:43:20.640Z,75.54
2023-03-26T15:45:29.695Z,76.83
2023-03-26T15:47:32.023Z,75.91
2023-03-26T15:49:22.475Z,76.52
2023-03-26T15:51:09.192Z,75.96
2023-03-26T15:53:09.823Z,74.91
2023-03-26T15:55:09.542Z,75.84
2023-03-26T15:56:58.312Z,75.69
2023-03-26T15:58:36.843Z,74.76
2023-03-26T16:00:22.200Z,73.48
2023-03-26T16:02:04.909Z,74.37
2023-03-26T16:03:54.520Z,74.95
2023-03-26T16:05:29.110Z,73.08
2023-03-26T16:07:09.723Z,72.23
2023-03-26T16:08:57.661Z,71.66
2023-03-26T16:10:52.484Z,71.96
2023-03-26T16:12:28.452Z,71.73
2023-03-26T16:14:23.498Z,70.57
2023-03-26T16:16:04.684Z,68.48
2023-03-26T16:18:10.253Z,69.16
2023-03-26T16:19:58.645Z,71.75
2023-03-26T16:21:32.289Z,71.12
2023-03-26T16:23:06.194Z,72.12
2023-03-26T16:24:46.693Z,73.25
2023-03-26T16:26:40.158Z,72.48
2023-03-26T16:28:30.819Z,71.67
2023-03-26T16:30:16.422Z,72.83
2023-03-26T16:32:09.671Z,73.06
2023-03-26T16:33:50.664Z,74.28
2023-03-26T16:35:39.441Z,73.28
2023-03-26T16:37:36.458Z,74.42
2023-03-26T16:39:11.648Z,73.38
2023-03-26T16:41:15.194Z,73.64
2023-03-26T16:43:05.342Z,73.64
2023-03-26T16:45:07.500Z,73.64
2023-03-26T16:46:57.808Z,73.72
2023-03-26T16:48:51.518Z,74.48
2023-03-26T16:50:35.481Z,74.92
2023-03-26T16:52:10.614Z,75.40
2023-03-26T16:53:49.431Z,74.29
2023-03-26T16:55:32.694Z,73.47
2023-03-26T16:57:23.350Z,74.03
2023-03-26T16:59:00.490Z,74.20
2023-03-26T17:00:40.881Z,74.41
2023-03-26T17:02:37.703Z,75.04
2023-03-26T17:04:17.242Z,74.24
2023-03-26T17:05:56.640Z,74.07
2023-03-26T17:07:47.214Z,73.33
2023-03-26T17:09:51.943Z,73.08
2023-03-26T17:11:41.957Z,73.05
2023-03-26T17:13:23.690Z,73.05
2023-03-26T17:15:08.429Z,73.94
2023-03-26T17:16:49.926Z,73.13
2023-03-26T17:18:27.385Z,73.93
2023-03-26T17:20:17.248Z,73.70
2023-03-26T17:21:55.903Z,75.17
2023-03-26T17:23:27.506Z,75.29
2023-03-26T17:25:19.788Z,74.96
2023-03-26T17:27:17.960Z,73.99
2023-03-26T17:29:05.756Z,74.72
2023-03-26T17:31:03.535Z,75.88
2023-03-26T17:33:02.745Z,75.63
2023-03-26T17:34:52.190Z,74.80
2023-03-26T17:36:40.588Z,75.88
2023-03-26T17:38:17.899Z,76.88
2023-03-26T17:39:55.897Z,75.66
2023-03-26T17:42:09.859Z,75.54
2023-03-26T17:43:52.200Z,74.94
2023-03-26T17:45:30.405Z,75.28
2023-03-26T17:47:03.598Z,77.09
2023-03-26T17:48:38.471Z,75.66
2023-03-26T17:50:53.999Z,76.21
2023-03-26T17:52:41.672Z,76.53
2023-03-26T17:54:27.337Z,77.49
2023-03-26T17:56:04.446Z,78.01
2023-03-26T17:57:46.484Z,79.09
2023-03-26T17:59:23.556Z,78.12
2023-03-26T18:01:14.550Z,77.87
2023-03-26T18:03:01.330Z,77.52
2023-03-26T18:04:38.514Z,78.17
2023-03-26T18:06:42.240Z,78.24
2023-03-26T18:08:25.619Z,78.76
2023-03-26T18:10:28.809Z,79.05
2023-03-26T18:12:00.485Z,79.23
2023-03-26T18:14:09.173Z,77.88
2023-03-26T18:16:18.084Z,78.75
2023-03-26T18:17:50.468Z,78.88
2023-03-26T18:19:23.365Z,79.18
2023-03-26T18:20:57.168Z,80.10
2023-03-26T18:22:30.336Z,80.05
2023-03-26T18:24:04.644Z,80.27
2023-03-26T18:25:36.513Z,79.88
2023-03-26T18:27:16.489Z,79.16
2023-03-26T18:29:11.398Z,78.52
2023-03-26T18:30:48.311Z,78.36
2023-03-26T18:32:22.459Z,78.43
2023-03-26T18:33:58.994Z,77.91
2023-03-26T18:35:41.854Z,77.82
2023-03-26T18:37:14.853Z,78.12
2023-03-26T18:38:48.916Z,78.71
2023-03-26T18:40:22.286Z,78.71
2023-03-26T18:41:54.609Z,78.70
2023-03-26T18:43:34.896Z,79.22
2023-03-26T18:45:23.582Z,78.79
2023-03-26T18:46:55.482Z,78.84
2023-03-26T18:48:29.082Z,78.75
2023-03-26T18:50:00.777Z,79.01
2023-03-26T18:51:35.029Z,78.15
2023-03-26T18:53:35.723Z,78.28
2023-03-26T18:55:11.535Z,78.23
2023-03-26T18:56:47.381Z,79.20
2023-03-26T18:58:32.912Z,78.80
2023-03-26T19:00:25.410Z,77.87
2023-03-26T19:01:59.213Z,78.35
2023-03-26T19:03:35.604Z,77.80
2023-03-26T19:05:12.773Z,77.92
2023-03-26T19:06:46.200Z,78.89
2023-03-26T19:08:18.580Z,78.72
2023-03-26T19:09:53.425Z,77.75
2023-03-26T19:11:26.463Z,77.86
2023-03-26T19:13:01.105Z,78.24
2023-03-26T19:14:37.030Z,79.31
2023-03-26T19:16:22.905Z,77.35
2023-03-26T19:18:03.934Z,78.04
2023-03-26T19:19:38.860Z,77.32
2023-03-26T19:21:10.652Z,77.32
2023-03-26T19:22:44.687Z,77.31
2023-03-26T19:24:18.784Z,78.00
2023-03-26T19:25:54.974Z,76.95
2023-03-26T19:27:26.707Z,77.08
2023-03-26T19:28:58.668Z,77.56
2023-03-26T19:30:33.749Z,77.97
2023-03-26T19:32:16.964Z,77.58
2023-03-26T19:34:01.848Z,77.70
2023-03-26T19:35:39.412Z,78.17
2023-03-26T19:37:25.347Z,77.34
2023-03-26T19:39:00.050Z,77.46
2023-03-26T19:40:34.329Z,77.47
2023-03-26T19:42:07.550Z,78.06
2023-03-26T19:43:39.699Z,76.99
2023-03-26T19:45:23.232Z,77.23
2023-03-26T19:47:03.576Z,77.33
2023-03-26T19:48:45.507Z,76.74
2023-03-26T19:50:30.104Z,76.78
2023-03-26T19:52:27.030Z,77.17
2023-03-26T19:54:00.879Z,77.09
2023-03-26T19:55:33.854Z,76.32
2023-03-26T19:57:05.578Z,76.68
2023-03-26T19:58:37.614Z,76.75
2023-03-26T20:00:14.209Z,77.04
2023-03-26T20:01:46.277Z,76.99
2023-03-26T20:03:24.642Z,77.24
2023-03-26T20:04:56.597Z,77.41
2023-03-26T20:06:42.336Z,77.81
2023-03-26T20:08:15.969Z,78.16
2023-03-26T20:09:52.508Z,77.73
2023-03-26T20:11:33.353Z,78.33
2023-03-26T20:13:15.371Z,78.39
2023-03-26T20:14:48.469Z,79.63
2023-03-26T20:16:30.593Z,79.08
2023-03-26T20:18:02.864Z,79.11
2023-03-26T20:19:35.368Z,79.03
2023-03-26T20:21:13.462Z,79.98
2023-03-26T20:22:48.172Z,79.25
2023-03-26T20:24:21.511Z,80.19
2023-03-26T20:25:54.854Z,79.77
2023-03-26T20:27:27.331Z,79.40
2023-03-26T20:29:00.009Z,79.68
2023-03-26T20:30:37.396Z,79.76
2023-03-26T20:32:19.576Z,79.73
2023-03-26T20:33:52.448Z,79.36
2023-03-26T20:35:35.916Z,79.43
2023-03-26T20:37:08.086Z,79.37
2023-03-26T20:38:43.461Z,80.15
2023-03-26T20:40:15.638Z,80.18
2023-03-26T20:41:48.531Z,81.24
2023-03-26T20:43:21.776Z,81.09
2023-03-26T20:44:53.409Z,81.53
2023-03-26T20:46:31.151Z,81.89
2023-03-26T20:48:03.648Z,82.84
2023-03-26T20:49:35.372Z,82.67
2023-03-26T20:51:09.274Z,82.73
2023-03-26T20:52:41.533Z,82.85
2023-03-26T20:54:16.012Z,81.92
2023-03-26T20:55:49.217Z,81.23
2023-03-26T20:57:23.607Z,80.55
2023-03-26T20:59:09.596Z,80.67
2023-03-26T21:00:44.290Z,81.15
2023-03-26T21:02:15.927Z,80.79
2023-03-26T21:03:47.609Z,80.98
2023-03-26T21:05:24.609Z,80.39
2023-03-26T21:07:07.135Z,81.14
2023-03-26T21:08:44.464Z,81.73
2023-03-26T21:10:17.541Z,82.00
2023-03-26T21:12:09.889Z,82.24
2023-03-26T21:13:52.171Z,81.51
2023-03-26T21:15:24.418Z,81.36
2023-03-26T21:16:56.584Z,82.30
2023-03-26T21:18:28.921Z,82.10
2023-03-26T21:20:08.982Z,81.74
2023-03-26T21:21:40.589Z,82.18
2023-03-26T21:23:31.527Z,82.22
2023-03-26T21:25:21.674Z,82.67
2023-03-26T21:27:09.753Z,81.76
2023-03-26T21:28:49.254Z,81.51
2023-03-26T21:30:22.193Z,80.43
2023-03-26T21:31:55.306Z,79.15
2023-03-26T21:33:28.423Z,78.93
2023-03-26T21:35:00.579Z,78.92
2023-03-26T21:36:33.379Z,78.20
2023-03-26T21:38:05.859Z,78.66
2023-03-26T21:39:38.004Z,78.75
2023-03-26T21:41:25.344Z,77.58
2023-03-26T21:42:57.276Z,77.58
2023-03-26T21:44:29.304Z,77.40
2023-03-26T21:46:01.210Z,78.03
2023-03-26T21:47:33.372Z,77.39
2023-03-26T21:49:05.339Z,78.11
2023-03-26T21:50:37.240Z,78.21
2023-03-26T21:52:15.069Z,79.28
2023-03-26T21:53:47.414Z,78.25
2023-03-26T21:55:23.802Z,78.44
2023-03-26T21:57:17.349Z,78.50
2023-03-26T21:59:19.570Z,77.84
2023-03-26T22:01:12.819Z,78.37
2023-03-26T22:02:50.414Z,77.62
2023-03-26T22:04:33.605Z,77.90
2023-03-26T22:06:16.921Z,78.85
2023-03-26T22:07:56.062Z,78.53
2023-03-26T22:11:07.222Z,79.40
2023-03-26T22:12:38.811Z,79.62
2023-03-26T22:14:13.238Z,79.28
2023-03-26T22:15:46.093Z,78.90